sensor_id;sensor_type;location;lat;lon;timestamp;temperature;humidity
56753;DHT22;42627;42.646;23.642;2022-10-31T00:10:24;9.30;90.10
56753;DHT22;42627;42.646;23.642;2022-10-31T00:12:25;8.90;94.80
56753;DHT22;42627;42.646;23.642;2022-10-31T00:14:26;8.90;93.00
56753;DHT22;42627;42.646;23.642;2022-10-31T00:18:28;8.90;92.20
56753;DHT22;42627;42.646;23.642;2022-10-31T00:22:32;8.80;90.10
56753;DHT22;42627;42.646;23.642;2022-10-31T00:28:34;8.80;86.70
56753;DHT22;42627;42.646;23.642;2022-10-31T00:30:35;8.70;91.50
56753;DHT22;42627;42.646;23.642;2022-10-31T00:32:36;8.70;92.10
56753;DHT22;42627;42.646;23.642;2022-10-31T00:34:48;8.70;93.50
56753;DHT22;42627;42.646;23.642;2022-10-31T00:39:07;8.70;94.50
56753;DHT22;42627;42.646;23.642;2022-10-31T00:41:08;8.70;95.80
56753;DHT22;42627;42.646;23.642;2022-10-31T00:47:19;8.60;96.20
56753;DHT22;42627;42.646;23.642;2022-10-31T00:51:21;8.60;97.30
56753;DHT22;42627;42.646;23.642;2022-10-31T00:55:23;8.50;98.10
56753;DHT22;42627;42.646;23.642;2022-10-31T00:57:24;8.50;98.10
56753;DHT22;42627;42.646;23.642;2022-10-31T01:10:17;8.50;97.60
56753;DHT22;42627;42.646;23.642;2022-10-31T01:12:18;8.30;98.60
56753;DHT22;42627;42.646;23.642;2022-10-31T01:16:22;8.30;98.90
56753;DHT22;42627;42.646;23.642;2022-10-31T01:20:25;8.40;97.40
56753;DHT22;42627;42.646;23.642;2022-10-31T01:34:42;8.40;95.70
56753;DHT22;42627;42.646;23.642;2022-10-31T01:39:09;8.40;94.40
56753;DHT22;42627;42.646;23.642;2022-10-31T01:47:52;8.40;95.60
56753;DHT22;42627;42.646;23.642;2022-10-31T01:54:20;8.40;98.30
56753;DHT22;42627;42.646;23.642;2022-10-31T01:56:21;8.50;98.30
56753;DHT22;42627;42.646;23.642;2022-10-31T02:00:49;8.40;99.20
56753;DHT22;42627;42.646;23.642;2022-10-31T02:02:51;8.40;99.30
56753;DHT22;42627;42.646;23.642;2022-10-31T02:04:53;8.40;99.50
56753;DHT22;42627;42.646;23.642;2022-10-31T02:10:13;8.50;99.10
56753;DHT22;42627;42.646;23.642;2022-10-31T02:12:27;8.50;99.20
56753;DHT22;42627;42.646;23.642;2022-10-31T02:14:30;8.50;99.50
56753;DHT22;42627;42.646;23.642;2022-10-31T02:18:32;8.40;99.90
56753;DHT22;42627;42.646;23.642;2022-10-31T02:20:43;8.40;99.90
56753;DHT22;42627;42.646;23.642;2022-10-31T02:28:10;8.40;99.90
56753;DHT22;42627;42.646;23.642;2022-10-31T02:30:22;8.50;99.90
56753;DHT22;42627;42.646;23.642;2022-10-31T02:35:26;8.50;99.90
56753;DHT22;42627;42.646;23.642;2022-10-31T02:43:20;8.60;99.90
56753;DHT22;42627;42.646;23.642;2022-10-31T02:48:12;8.70;99.90
56753;DHT22;42627;42.646;23.642;2022-10-31T02:50:19;8.70;99.90
56753;DHT22;42627;42.646;23.642;2022-10-31T02:52:23;8.70;99.90
56753;DHT22;42627;42.646;23.642;2022-10-31T02:54:26;8.70;99.90
56753;DHT22;42627;42.646;23.642;2022-10-31T02:56:32;8.70;99.90
56753;DHT22;42627;42.646;23.642;2022-10-31T02:58:33;8.70;99.90
56753;DHT22;42627;42.646;23.642;2022-10-31T03:03:24;8.80;99.90
56753;DHT22;42627;42.646;23.642;2022-10-31T03:11:09;8.90;99.90
56753;DHT22;42627;42.646;23.642;2022-10-31T03:13:21;8.90;99.90
56753;DHT22;42627;42.646;23.642;2022-10-31T03:15:29;8.90;99.90
56753;DHT22;42627;42.646;23.642;2022-10-31T03:17:35;8.90;99.90
56753;DHT22;42627;42.646;23.642;2022-10-31T03:19:40;9.00;99.90
56753;DHT22;42627;42.646;23.642;2022-10-31T03:21:46;9.00;99.90
56753;DHT22;42627;42.646;23.642;2022-10-31T03:23:49;9.00;99.90
56753;DHT22;42627;42.646;23.642;2022-10-31T03:28:02;9.10;99.70
56753;DHT22;42627;42.646;23.642;2022-10-31T03:30:09;9.10;99.60
56753;DHT22;42627;42.646;23.642;2022-10-31T03:32:14;9.10;99.70
56753;DHT22;42627;42.646;23.642;2022-10-31T03:34:17;9.10;99.70
56753;DHT22;42627;42.646;23.642;2022-10-31T03:36:44;9.10;99.90
56753;DHT22;42627;42.646;23.642;2022-10-31T03:39:12;9.10;99.90
56753;DHT22;42627;42.646;23.642;2022-10-31T03:41:22;9.10;99.90
56753;DHT22;42627;42.646;23.642;2022-10-31T03:43:28;9.10;99.90
56753;DHT22;42627;42.646;23.642;2022-10-31T03:45:30;9.20;99.90
56753;DHT22;42627;42.646;23.642;2022-10-31T03:47:31;9.20;99.90
56753;DHT22;42627;42.646;23.642;2022-10-31T03:49:32;9.20;99.90
56753;DHT22;42627;42.646;23.642;2022-10-31T03:51:42;9.20;99.90
56753;DHT22;42627;42.646;23.642;2022-10-31T03:54:33;9.20;99.90
56753;DHT22;42627;42.646;23.642;2022-10-31T03:56:37;9.20;99.90
56753;DHT22;42627;42.646;23.642;2022-10-31T03:58:46;9.20;99.90
56753;DHT22;42627;42.646;23.642;2022-10-31T04:00:51;9.20;99.90
56753;DHT22;42627;42.646;23.642;2022-10-31T04:03:08;9.10;99.90
56753;DHT22;42627;42.646;23.642;2022-10-31T04:05:20;9.20;99.90
56753;DHT22;42627;42.646;23.642;2022-10-31T04:07:46;9.20;99.90
56753;DHT22;42627;42.646;23.642;2022-10-31T04:10:07;9.20;99.90
56753;DHT22;42627;42.646;23.642;2022-10-31T04:12:12;9.10;99.90
56753;DHT22;42627;42.646;23.642;2022-10-31T04:14:15;9.10;99.90
56753;DHT22;42627;42.646;23.642;2022-10-31T04:16:16;9.10;99.90
56753;DHT22;42627;42.646;23.642;2022-10-31T04:18:18;9.10;99.90
56753;DHT22;42627;42.646;23.642;2022-10-31T04:20:18;9.10;99.90
56753;DHT22;42627;42.646;23.642;2022-10-31T04:22:29;9.10;99.90
56753;DHT22;42627;42.646;23.642;2022-10-31T04:24:48;9.10;99.90
56753;DHT22;42627;42.646;23.642;2022-10-31T04:26:48;9.10;99.90
56753;DHT22;42627;42.646;23.642;2022-10-31T04:28:49;9.10;99.90
56753;DHT22;42627;42.646;23.642;2022-10-31T04:30:49;9.10;99.90
56753;DHT22;42627;42.646;23.642;2022-10-31T04:32:50;9.10;99.90
56753;DHT22;42627;42.646;23.642;2022-10-31T04:34:59;9.10;99.90
56753;DHT22;42627;42.646;23.642;2022-10-31T04:37:21;9.10;99.90
56753;DHT22;42627;42.646;23.642;2022-10-31T04:39:34;9.10;99.90
56753;DHT22;42627;42.646;23.642;2022-10-31T04:41:35;9.10;99.50
56753;DHT22;42627;42.646;23.642;2022-10-31T04:43:35;9.10;99.60
56753;DHT22;42627;42.646;23.642;2022-10-31T04:45:37;9.00;99.70
56753;DHT22;42627;42.646;23.642;2022-10-31T04:47:37;8.90;99.90
56753;DHT22;42627;42.646;23.642;2022-10-31T04:49:38;8.90;99.90
56753;DHT22;42627;42.646;23.642;2022-10-31T04:51:39;8.90;99.90
56753;DHT22;42627;42.646;23.642;2022-10-31T04:53:39;8.90;99.90
56753;DHT22;42627;42.646;23.642;2022-10-31T04:55:46;8.90;99.90
56753;DHT22;42627;42.646;23.642;2022-10-31T04:57:48;8.90;99.90
56753;DHT22;42627;42.646;23.642;2022-10-31T04:59:49;8.90;99.90
56753;DHT22;42627;42.646;23.642;2022-10-31T05:01:49;8.90;99.90
56753;DHT22;42627;42.646;23.642;2022-10-31T05:03:50;8.90;99.90
56753;DHT22;42627;42.646;23.642;2022-10-31T05:06:14;9.00;99.90
56753;DHT22;42627;42.646;23.642;2022-10-31T05:08:44;9.00;99.90
56753;DHT22;42627;42.646;23.642;2022-10-31T05:12:54;8.90;99.90
56753;DHT22;42627;42.646;23.642;2022-10-31T05:14:55;8.80;99.90
56753;DHT22;42627;42.646;23.642;2022-10-31T05:16:56;8.80;99.90
56753;DHT22;42627;42.646;23.642;2022-10-31T05:18:56;8.80;99.90
56753;DHT22;42627;42.646;23.642;2022-10-31T05:20:57;8.70;99.90
56753;DHT22;42627;42.646;23.642;2022-10-31T05:22:58;8.70;99.90
56753;DHT22;42627;42.646;23.642;2022-10-31T05:25:09;8.80;99.90
56753;DHT22;42627;42.646;23.642;2022-10-31T05:27:09;8.80;99.90
56753;DHT22;42627;42.646;23.642;2022-10-31T05:29:10;8.80;99.90
56753;DHT22;42627;42.646;23.642;2022-10-31T05:31:11;8.80;99.90
56753;DHT22;42627;42.646;23.642;2022-10-31T05:33:11;8.80;99.90
56753;DHT22;42627;42.646;23.642;2022-10-31T05:35:30;8.80;99.90
56753;DHT22;42627;42.646;23.642;2022-10-31T05:37:56;8.80;99.90
56753;DHT22;42627;42.646;23.642;2022-10-31T05:40:09;8.80;99.90
56753;DHT22;42627;42.646;23.642;2022-10-31T05:42:10;8.80;99.90
56753;DHT22;42627;42.646;23.642;2022-10-31T05:44:10;8.90;99.90
56753;DHT22;42627;42.646;23.642;2022-10-31T05:46:11;8.90;99.90
56753;DHT22;42627;42.646;23.642;2022-10-31T05:48:12;8.90;99.90
56753;DHT22;42627;42.646;23.642;2022-10-31T05:50:12;8.90;99.90
56753;DHT22;42627;42.646;23.642;2022-10-31T05:52:13;9.00;99.90
56753;DHT22;42627;42.646;23.642;2022-10-31T05:54:26;9.00;99.90
56753;DHT22;42627;42.646;23.642;2022-10-31T05:56:26;9.10;99.90
56753;DHT22;42627;42.646;23.642;2022-10-31T05:58:27;9.10;99.90
56753;DHT22;42627;42.646;23.642;2022-10-31T06:00:28;9.20;99.90
56753;DHT22;42627;42.646;23.642;2022-10-31T06:02:29;9.30;99.90
56753;DHT22;42627;42.646;23.642;2022-10-31T06:07:33;9.50;99.90
56753;DHT22;42627;42.646;23.642;2022-10-31T06:09:39;9.50;99.90
56753;DHT22;42627;42.646;23.642;2022-10-31T06:11:40;9.60;99.90
56753;DHT22;42627;42.646;23.642;2022-10-31T06:13:40;9.70;99.90
56753;DHT22;42627;42.646;23.642;2022-10-31T06:15:42;9.70;99.90
56753;DHT22;42627;42.646;23.642;2022-10-31T06:17:42;9.80;99.90
56753;DHT22;42627;42.646;23.642;2022-10-31T06:19:43;9.80;99.90
56753;DHT22;42627;42.646;23.642;2022-10-31T06:21:44;9.90;99.90
56753;DHT22;42627;42.646;23.642;2022-10-31T06:23:50;10.00;99.90
56753;DHT22;42627;42.646;23.642;2022-10-31T06:25:52;10.10;99.90
56753;DHT22;42627;42.646;23.642;2022-10-31T06:27:52;10.20;99.90
56753;DHT22;42627;42.646;23.642;2022-10-31T06:29:53;10.30;99.90
56753;DHT22;42627;42.646;23.642;2022-10-31T06:31:54;10.50;99.90
56753;DHT22;42627;42.646;23.642;2022-10-31T06:34:00;10.60;99.90
56753;DHT22;42627;42.646;23.642;2022-10-31T06:36:06;10.70;99.80
56753;DHT22;42627;42.646;23.642;2022-10-31T06:38:27;10.80;99.90
56753;DHT22;42627;42.646;23.642;2022-10-31T06:40:28;11.00;99.50
56753;DHT22;42627;42.646;23.642;2022-10-31T06:42:28;11.10;99.20
56753;DHT22;42627;42.646;23.642;2022-10-31T06:44:29;11.20;98.80
56753;DHT22;42627;42.646;23.642;2022-10-31T06:46:31;11.40;98.40
56753;DHT22;42627;42.646;23.642;2022-10-31T06:48:32;11.60;97.40
56753;DHT22;42627;42.646;23.642;2022-10-31T06:50:33;11.80;95.70
56753;DHT22;42627;42.646;23.642;2022-10-31T06:52:39;12.00;95.00
56753;DHT22;42627;42.646;23.642;2022-10-31T06:54:40;12.10;93.80
56753;DHT22;42627;42.646;23.642;2022-10-31T06:56:40;12.30;93.30
56753;DHT22;42627;42.646;23.642;2022-10-31T06:58:41;12.50;92.10
56753;DHT22;42627;42.646;23.642;2022-10-31T07:00:42;12.60;91.80
56753;DHT22;42627;42.646;23.642;2022-10-31T07:03:06;12.80;91.40
56753;DHT22;42627;42.646;23.642;2022-10-31T07:05:39;13.00;90.80
56753;DHT22;42627;42.646;23.642;2022-10-31T07:07:59;13.20;87.90
56753;DHT22;42627;42.646;23.642;2022-10-31T07:10:00;13.40;85.30
56753;DHT22;42627;42.646;23.642;2022-10-31T07:12:01;13.60;84.80
56753;DHT22;42627;42.646;23.642;2022-10-31T07:14:02;13.60;81.80
56753;DHT22;42627;42.646;23.642;2022-10-31T07:16:04;13.70;80.70
56753;DHT22;42627;42.646;23.642;2022-10-31T07:18:09;13.70;80.70
56753;DHT22;42627;42.646;23.642;2022-10-31T07:20:10;13.80;79.90
56753;DHT22;42627;42.646;23.642;2022-10-31T07:22:33;13.80;80.30
56753;DHT22;42627;42.646;23.642;2022-10-31T07:24:34;14.00;79.40
56753;DHT22;42627;42.646;23.642;2022-10-31T07:26:34;14.00;78.00
56753;DHT22;42627;42.646;23.642;2022-10-31T07:28:35;14.20;77.70
56753;DHT22;42627;42.646;23.642;2022-10-31T07:30:36;14.20;77.10
56753;DHT22;42627;42.646;23.642;2022-10-31T07:32:50;14.30;76.50
56753;DHT22;42627;42.646;23.642;2022-10-31T07:35:03;14.40;75.00
56753;DHT22;42627;42.646;23.642;2022-10-31T07:37:22;14.50;75.20
56753;DHT22;42627;42.646;23.642;2022-10-31T07:39:22;14.60;75.10
56753;DHT22;42627;42.646;23.642;2022-10-31T07:41:24;14.70;74.90
56753;DHT22;42627;42.646;23.642;2022-10-31T07:43:25;14.80;74.90
56753;DHT22;42627;42.646;23.642;2022-10-31T07:45:26;14.90;74.40
56753;DHT22;42627;42.646;23.642;2022-10-31T07:47:26;15.10;75.10
56753;DHT22;42627;42.646;23.642;2022-10-31T07:49:27;15.20;74.00
56753;DHT22;42627;42.646;23.642;2022-10-31T07:51:28;15.30;73.70
56753;DHT22;42627;42.646;23.642;2022-10-31T07:53:28;15.40;73.60
56753;DHT22;42627;42.646;23.642;2022-10-31T07:55:29;15.40;73.70
56753;DHT22;42627;42.646;23.642;2022-10-31T07:57:30;15.50;74.50
56753;DHT22;42627;42.646;23.642;2022-10-31T07:59:31;15.60;72.20
56753;DHT22;42627;42.646;23.642;2022-10-31T08:01:32;15.70;73.30
56753;DHT22;42627;42.646;23.642;2022-10-31T19:45:03;15.80;71.80
56753;DHT22;42627;42.646;23.642;2022-10-31T19:47:04;12.80;76.40
56753;DHT22;42627;42.646;23.642;2022-10-31T19:49:05;12.50;75.50
56753;DHT22;42627;42.646;23.642;2022-10-31T19:51:10;12.50;75.40
56753;DHT22;42627;42.646;23.642;2022-10-31T19:53:30;12.40;75.00
56753;DHT22;42627;42.646;23.642;2022-10-31T19:55:59;12.40;74.70
56753;DHT22;42627;42.646;23.642;2022-10-31T19:58:04;12.30;74.90
56753;DHT22;42627;42.646;23.642;2022-10-31T20:00:05;12.20;75.10
56753;DHT22;42627;42.646;23.642;2022-10-31T20:02:06;12.20;74.90
56753;DHT22;42627;42.646;23.642;2022-10-31T20:04:06;12.20;74.90
56753;DHT22;42627;42.646;23.642;2022-10-31T20:06:26;12.30;74.70
56753;DHT22;42627;42.646;23.642;2022-10-31T20:08:27;12.30;74.60
56753;DHT22;42627;42.646;23.642;2022-10-31T20:10:29;12.40;73.70
56753;DHT22;42627;42.646;23.642;2022-10-31T20:27:42;12.10;75.60
56753;DHT22;42627;42.646;23.642;2022-10-31T21:03:30;12.10;75.60
56753;DHT22;42627;42.646;23.642;2022-10-31T21:13:46;11.60;77.00
56753;DHT22;42627;42.646;23.642;2022-10-31T21:19:49;11.50;78.50
56753;DHT22;42627;42.646;23.642;2022-10-31T21:22:13;11.20;80.50
56753;DHT22;42627;42.646;23.642;2022-10-31T21:24:48;11.10;81.00
56753;DHT22;42627;42.646;23.642;2022-10-31T21:27:00;11.00;81.80
56753;DHT22;42627;42.646;23.642;2022-10-31T21:29:04;10.90;83.10
56753;DHT22;42627;42.646;23.642;2022-10-31T21:31:07;10.80;83.80
56753;DHT22;42627;42.646;23.642;2022-10-31T21:33:08;10.80;84.40
56753;DHT22;42627;42.646;23.642;2022-10-31T21:35:09;10.80;85.30
56753;DHT22;42627;42.646;23.642;2022-10-31T21:37:10;10.90;84.70
56753;DHT22;42627;42.646;23.642;2022-10-31T21:39:10;11.00;84.70
56753;DHT22;42627;42.646;23.642;2022-10-31T21:45:15;10.90;85.20
56753;DHT22;42627;42.646;23.642;2022-10-31T21:47:16;10.90;85.60
56753;DHT22;42627;42.646;23.642;2022-10-31T21:49:17;10.90;86.00
56753;DHT22;42627;42.646;23.642;2022-10-31T21:51:42;10.80;86.20
56753;DHT22;42627;42.646;23.642;2022-10-31T21:54:20;10.80;86.60
56753;DHT22;42627;42.646;23.642;2022-10-31T21:58:41;10.80;87.30
56753;DHT22;42627;42.646;23.642;2022-10-31T22:00:41;10.50;90.00
56753;DHT22;42627;42.646;23.642;2022-10-31T22:02:42;10.50;90.20
56753;DHT22;42627;42.646;23.642;2022-10-31T22:04:42;10.50;90.40
56753;DHT22;42627;42.646;23.642;2022-10-31T22:06:44;10.50;90.70
56753;DHT22;42627;42.646;23.642;2022-10-31T22:08:45;10.50;90.80
56753;DHT22;42627;42.646;23.642;2022-10-31T22:10:46;10.60;90.70
56753;DHT22;42627;42.646;23.642;2022-10-31T22:12:47;10.60;90.50
56753;DHT22;42627;42.646;23.642;2022-10-31T22:14:47;10.60;90.20
56753;DHT22;42627;42.646;23.642;2022-10-31T22:16:48;10.60;90.20
56753;DHT22;42627;42.646;23.642;2022-10-31T22:18:53;10.60;90.30
56753;DHT22;42627;42.646;23.642;2022-10-31T22:21:23;10.70;90.10
56753;DHT22;42627;42.646;23.642;2022-10-31T22:23:49;10.70;89.60
56753;DHT22;42627;42.646;23.642;2022-10-31T22:26:13;10.70;88.80
56753;DHT22;42627;42.646;23.642;2022-10-31T22:28:14;10.70;88.10
56753;DHT22;42627;42.646;23.642;2022-10-31T22:30:14;10.70;88.10
56753;DHT22;42627;42.646;23.642;2022-10-31T22:32:15;10.60;88.30
56753;DHT22;42627;42.646;23.642;2022-10-31T22:34:16;10.60;88.40
56753;DHT22;42627;42.646;23.642;2022-10-31T22:36:23;10.60;89.00
56753;DHT22;42627;42.646;23.642;2022-10-31T22:38:24;10.50;89.40
56753;DHT22;42627;42.646;23.642;2022-10-31T22:40:34;10.50;89.80
56753;DHT22;42627;42.646;23.642;2022-10-31T22:42:35;10.40;89.90
56753;DHT22;42627;42.646;23.642;2022-10-31T22:44:35;10.40;90.00
56753;DHT22;42627;42.646;23.642;2022-10-31T22:46:37;10.40;90.10
56753;DHT22;42627;42.646;23.642;2022-10-31T22:48:43;10.30;90.40
56753;DHT22;42627;42.646;23.642;2022-10-31T22:51:19;10.40;90.40
56753;DHT22;42627;42.646;23.642;2022-10-31T22:54:20;10.40;90.20
56753;DHT22;42627;42.646;23.642;2022-10-31T22:56:21;10.40;89.90
56753;DHT22;42627;42.646;23.642;2022-10-31T22:58:22;10.30;90.00
56753;DHT22;42627;42.646;23.642;2022-10-31T23:04:25;10.30;90.00
56753;DHT22;42627;42.646;23.642;2022-10-31T23:06:27;10.00;91.30
56753;DHT22;42627;42.646;23.642;2022-10-31T23:10:32;9.90;91.80
56753;DHT22;42627;42.646;23.642;2022-10-31T23:12:33;9.80;92.40
56753;DHT22;42627;42.646;23.642;2022-10-31T23:14:52;9.80;92.60
56753;DHT22;42627;42.646;23.642;2022-10-31T23:16:55;9.90;92.50
56753;DHT22;42627;42.646;23.642;2022-10-31T23:19:20;9.80;92.60
56753;DHT22;42627;42.646;23.642;2022-10-31T23:21:54;9.90;92.70
56753;DHT22;42627;42.646;23.642;2022-10-31T23:24:14;9.80;92.70
56753;DHT22;42627;42.646;23.642;2022-10-31T23:26:15;9.80;92.50
56753;DHT22;42627;42.646;23.642;2022-10-31T23:28:34;9.80;92.60
56753;DHT22;42627;42.646;23.642;2022-10-31T23:30:35;9.80;92.60
56753;DHT22;42627;42.646;23.642;2022-10-31T23:32:36;9.80;92.50
56753;DHT22;42627;42.646;23.642;2022-10-31T23:34:37;9.80;92.40
56753;DHT22;42627;42.646;23.642;2022-10-31T23:36:38;9.80;92.40
56753;DHT22;42627;42.646;23.642;2022-10-31T23:40:49;9.80;92.20
56753;DHT22;42627;42.646;23.642;2022-10-31T23:42:50;9.60;92.60
56753;DHT22;42627;42.646;23.642;2022-10-31T23:44:51;9.50;92.60
56753;DHT22;42627;42.646;23.642;2022-10-31T23:46:51;9.40;92.60
56753;DHT22;42627;42.646;23.642;2022-10-31T23:49:17;9.40;92.70
56753;DHT22;42627;42.646;23.642;2022-10-31T23:51:52;9.40;92.70
56753;DHT22;42627;42.646;23.642;2022-10-31T23:54:01;9.50;92.60
56753;DHT22;42627;42.646;23.642;2022-10-31T23:56:02;9.40;92.50
56753;DHT22;42627;42.646;23.642;2022-10-31T23:58:03;9.40;92.70
